Time;durP1;ratioP1;P1;durP2;ratioP2;P2;SDS_P1;SDS_P2;PMS_P1;PMS_P2;Temp;Humidity;BMP_temperature;BMP_pressure;BME280_temperature;BME280_humidity;BME280_pressure;Samples;Min_cycle;Max_cycle;Signal;HPM_P1;HPM_P2
2022/10/09 00:01:15;;;;;;;;;;;19.80;86.40;;;;;;5095183;28;19924;-62
2022/10/09 00:03:41;;;;;;;;;;;19.60;86.20;;;;;;5112265;28;19924;-62
2022/10/09 00:06:07;;;;;;;;;;;19.60;86.20;;;;;;5112749;28;20008;-62
2022/10/09 00:08:33;;;;;;;;;;;20.00;86.50;;;;;;5113183;28;19923;-62
2022/10/09 00:10:58;;;;;;;;;;;20.00;86.40;;;;;;5110894;28;20019;-66
2022/10/09 00:13:24;;;;;;;;;;;19.60;86.10;;;;;;5111292;28;20361;-62
2022/10/09 00:15:50;;;;;;;;;;;19.70;86.20;;;;;;5113074;28;19924;-62
2022/10/09 00:18:16;;;;;;;;;;;19.80;86.10;;;;;;5094580;28;20018;-62
2022/10/09 00:20:43;;;;;;;;;;;19.90;86.20;;;;;;5113317;28;20013;-62
2022/10/09 00:23:09;;;;;;;;;;;19.60;86.10;;;;;;5112110;28;20315;-62
2022/10/09 00:25:35;;;;;;;;;;;19.80;86.10;;;;;;5111303;28;19924;-61
2022/10/09 00:28:00;;;;;;;;;;;19.50;86.00;;;;;;5110603;28;19973;-61
2022/10/09 00:30:26;;;;;;;;;;;19.70;86.10;;;;;;5108343;28;19924;-62
2022/10/09 00:32:51;;;;;;;;;;;19.70;86.10;;;;;;5117493;28;19924;-62
2022/10/09 00:35:17;;;;;;;;;;;19.70;86.00;;;;;;5113927;28;19919;-61
2022/10/09 00:37:43;;;;;;;;;;;19.50;85.90;;;;;;5116037;28;20436;-62
2022/10/09 00:40:08;;;;;;;;;;;19.90;86.10;;;;;;5116471;28;20007;-61
2022/10/09 00:42:34;;;;;;;;;;;19.70;86.00;;;;;;5114166;28;19927;-62
2022/10/09 00:45:00;;;;;;;;;;;19.50;85.90;;;;;;5108380;28;19937;-62
2022/10/09 00:47:28;;;;;;;;;;;19.70;86.10;;;;;;5094103;28;19935;-62
2022/10/09 00:50:09;;;;;;;;;;;19.60;86.00;;;;;;5098634;28;19977;-62
2022/10/09 00:52:34;;;;;;;;;;;19.60;86.00;;;;;;5097942;28;19923;-61
2022/10/09 00:55:00;;;;;;;;;;;;;;;;;;5096825;28;20438;-63
2022/10/09 00:57:26;;;;;;;;;;;19.70;86.10;;;;;;5106630;28;19927;-61
2022/10/09 00:59:51;;;;;;;;;;;19.50;85.90;;;;;;5117772;28;20069;-61
2022/10/09 01:02:17;;;;;;;;;;;19.70;86.00;;;;;;5115715;28;20285;-62
2022/10/09 01:04:43;;;;;;;;;;;19.80;86.10;;;;;;5099057;28;19924;-61
2022/10/09 01:07:15;;;;;;;;;;;19.70;86.00;;;;;;5114473;28;20010;-62
2022/10/09 01:09:42;;;;;;;;;;;19.60;85.90;;;;;;5114869;28;19938;-62
2022/10/09 01:12:26;;;;;;;;;;;19.50;85.90;;;;;;5098346;28;19923;-62
2022/10/09 01:15:01;;;;;;;;;;;19.40;85.90;;;;;;5116365;28;19924;-62
2022/10/09 01:17:38;;;;;;;;;;;19.40;85.90;;;;;;5110688;28;20400;-62
2022/10/09 01:20:31;;;;;;;;;;;19.50;86.00;;;;;;5115256;28;19923;-62
2022/10/09 01:22:59;;;;;;;;;;;19.80;86.10;;;;;;5094415;28;19931;-62
2022/10/09 01:25:31;;;;;;;;;;;19.50;86.00;;;;;;5115184;28;19950;-62
2022/10/09 01:27:57;;;;;;;;;;;19.80;86.10;;;;;;5072471;28;19968;-62
2022/10/09 01:30:22;;;;;;;;;;;19.70;86.10;;;;;;5103415;28;19924;-62
2022/10/09 01:32:48;;;;;;;;;;;19.60;86.00;;;;;;5116175;28;19931;-61
2022/10/09 01:35:14;;;;;;;;;;;19.60;86.00;;;;;;5096725;28;19931;-61
2022/10/09 01:37:40;;;;;;;;;;;19.70;86.10;;;;;;5114551;28;19923;-61
2022/10/09 01:40:06;;;;;;;;;;;19.60;86.10;;;;;;5098597;28;19928;-61
2022/10/09 01:42:32;;;;;;;;;;;19.50;86.00;;;;;;5096617;28;19976;-62
2022/10/09 01:44:58;;;;;;;;;;;19.50;85.90;;;;;;5087800;28;20282;-67
2022/10/09 01:47:23;;;;;;;;;;;19.50;85.90;;;;;;5115846;28;19970;-62
2022/10/09 01:49:52;;;;;;;;;;;19.50;86.00;;;;;;5114699;28;19976;-61
2022/10/09 01:52:20;;;;;;;;;;;19.40;85.90;;;;;;5114343;28;20021;-61
2022/10/09 01:54:55;;;;;;;;;;;19.50;86.00;;;;;;5098575;28;19967;-62
2022/10/09 01:57:28;;;;;;;;;;;19.70;86.10;;;;;;5115335;28;20385;-61
2022/10/09 01:59:54;;;;;;;;;;;19.50;86.00;;;;;;5104145;28;19947;-61
2022/10/09 02:02:19;;;;;;;;;;;19.40;85.70;;;;;;5112552;28;20381;-61
2022/10/09 02:04:45;;;;;;;;;;;19.50;86.00;;;;;;5098461;28;19934;-62
2022/10/09 02:07:11;;;;;;;;;;;19.50;85.90;;;;;;5090270;28;19978;-61
2022/10/09 02:09:37;;;;;;;;;;;19.60;86.00;;;;;;5106035;28;19930;-61
2022/10/09 02:12:03;;;;;;;;;;;19.40;85.90;;;;;;5112980;28;20290;-61
2022/10/09 02:14:29;;;;;;;;;;;19.60;86.00;;;;;;5114554;28;19923;-61
2022/10/09 02:17:00;;;;;;;;;;;19.40;85.90;;;;;;5095917;28;19924;-61
2022/10/09 02:19:28;;;;;;;;;;;19.60;86.00;;;;;;5115180;28;20301;-61
2022/10/09 02:21:54;;;;;;;;;;;19.40;85.90;;;;;;5096545;28;20018;-62
2022/10/09 02:24:20;;;;;;;;;;;19.50;85.90;;;;;;5116119;28;19963;-62
2022/10/09 02:26:45;;;;;;;;;;;19.60;86.00;;;;;;5110362;28;20065;-62
2022/10/09 02:29:11;;;;;;;;;;;19.60;86.00;;;;;;5114900;28;19971;-62
2022/10/09 02:31:37;;;;;;;;;;;19.50;85.90;;;;;;5093765;28;19924;-61
2022/10/09 02:34:03;;;;;;;;;;;19.50;86.00;;;;;;5097813;28;20436;-61
2022/10/09 02:36:30;;;;;;;;;;;19.50;85.90;;;;;;5114651;28;19923;-61
2022/10/09 02:38:55;;;;;;;;;;;19.50;85.90;;;;;;5095412;28;19973;-62
2022/10/09 02:41:21;;;;;;;;;;;19.50;86.00;;;;;;5113634;28;19923;-67
2022/10/09 02:43:46;;;;;;;;;;;19.30;85.80;;;;;;5113347;28;19928;-67
2022/10/09 02:46:12;;;;;;;;;;;19.40;85.90;;;;;;5093659;28;19927;-62
2022/10/09 02:48:38;;;;;;;;;;;19.50;86.00;;;;;;5114863;28;19924;-61
2022/10/09 02:51:03;;;;;;;;;;;19.50;85.90;;;;;;5109090;28;20412;-61
2022/10/09 02:53:29;;;;;;;;;;;19.70;86.00;;;;;;5112683;28;20006;-61
2022/10/09 02:55:55;;;;;;;;;;;19.30;85.80;;;;;;5115534;28;20006;-61
2022/10/09 02:58:20;;;;;;;;;;;19.30;85.80;;;;;;5114590;28;20353;-61
2022/10/09 03:00:47;;;;;;;;;;;19.30;85.80;;;;;;5114144;28;19924;-60
2022/10/09 03:03:12;;;;;;;;;;;19.40;85.90;;;;;;5111700;28;20019;-62
2022/10/09 03:05:38;;;;;;;;;;;19.30;85.80;;;;;;5096239;28;19998;-62
2022/10/09 03:08:03;;;;;;;;;;;19.20;85.80;;;;;;5114181;28;19944;-61
2022/10/09 03:10:29;;;;;;;;;;;19.50;85.90;;;;;;5112514;28;19924;-61
2022/10/09 03:12:55;;;;;;;;;;;19.40;85.90;;;;;;5111997;28;20026;-62
2022/10/09 03:15:20;;;;;;;;;;;19.30;85.80;;;;;;5113882;28;19931;-61
2022/10/09 03:17:46;;;;;;;;;;;19.20;85.80;;;;;;5112881;28;19930;-61
2022/10/09 03:20:11;;;;;;;;;;;19.30;85.80;;;;;;5113965;28;19935;-61
2022/10/09 03:22:37;;;;;;;;;;;19.50;85.90;;;;;;5114113;28;20019;-61
2022/10/09 03:25:03;;;;;;;;;;;19.20;85.70;;;;;;5112809;28;19963;-62
2022/10/09 03:27:29;;;;;;;;;;;19.10;85.80;;;;;;5112616;28;19924;-62
2022/10/09 03:29:56;;;;;;;;;;;19.30;85.90;;;;;;5096731;28;19928;-61
2022/10/09 03:32:21;;;;;;;;;;;19.20;85.80;;;;;;5113883;28;19924;-62
2022/10/09 03:34:47;;;;;;;;;;;19.40;86.00;;;;;;5111706;28;19976;-62
2022/10/09 03:37:12;;;;;;;;;;;19.20;85.80;;;;;;5111591;28;19924;-62
2022/10/09 03:39:38;;;;;;;;;;;19.30;85.90;;;;;;5114060;28;19931;-61
2022/10/09 03:42:03;;;;;;;;;;;19.30;85.90;;;;;;5113458;28;19949;-62
2022/10/09 03:44:29;;;;;;;;;;;19.40;85.90;;;;;;5112895;28;19969;-62
2022/10/09 03:46:55;;;;;;;;;;;19.30;85.90;;;;;;5101507;28;20281;-62
2022/10/09 03:49:20;;;;;;;;;;;19.20;85.80;;;;;;5111469;28;19927;-62
2022/10/09 03:51:46;;;;;;;;;;;19.40;86.00;;;;;;5113136;28;19931;-61
2022/10/09 03:54:11;;;;;;;;;;;19.20;85.90;;;;;;5113400;28;19936;-62
2022/10/09 03:56:37;;;;;;;;;;;19.20;85.90;;;;;;5094630;28;20817;-61
2022/10/09 03:59:04;;;;;;;;;;;19.50;86.10;;;;;;5096074;28;20407;-62
2022/10/09 04:01:30;;;;;;;;;;;19.40;86.00;;;;;;5112878;28;20015;-62
2022/10/09 04:03:55;;;;;;;;;;;19.20;85.90;;;;;;5112214;28;19963;-62
2022/10/09 04:06:21;;;;;;;;;;;19.50;86.00;;;;;;5111195;28;19974;-62
2022/10/09 04:08:47;;;;;;;;;;;19.00;85.80;;;;;;5112644;28;19924;-62
2022/10/09 04:11:12;;;;;;;;;;;19.60;86.00;;;;;;5112492;28;20274;-62
2022/10/09 04:13:38;;;;;;;;;;;19.20;85.80;;;;;;5111987;28;19927;-67
2022/10/09 04:16:04;;;;;;;;;;;19.10;85.80;;;;;;5109883;28;20374;-62
2022/10/09 04:18:29;;;;;;;;;;;19.10;85.80;;;;;;5113514;28;19928;-62
2022/10/09 04:20:55;;;;;;;;;;;19.10;85.70;;;;;;5112103;28;19927;-61
2022/10/09 04:23:21;;;;;;;;;;;19.10;85.70;;;;;;5113458;28;19924;-61
2022/10/09 04:25:47;;;;;;;;;;;19.30;85.70;;;;;;5112450;28;19920;-61
2022/10/09 04:28:12;;;;;;;;;;;19.30;85.70;;;;;;5109568;28;19976;-61
2022/10/09 04:30:38;;;;;;;;;;;19.10;85.60;;;;;;5113214;28;19931;-61
2022/10/09 04:33:04;;;;;;;;;;;19.10;85.60;;;;;;5113538;28;20373;-62
2022/10/09 04:35:29;;;;;;;;;;;19.40;85.80;;;;;;5113356;28;19924;-62
2022/10/09 04:37:55;;;;;;;;;;;19.10;85.60;;;;;;5109070;28;19924;-67
2022/10/09 04:40:20;;;;;;;;;;;19.00;85.60;;;;;;5112587;28;19924;-67
2022/10/09 04:42:46;;;;;;;;;;;19.00;85.60;;;;;;5112647;28;19930;-62
2022/10/09 04:45:12;;;;;;;;;;;19.10;85.60;;;;;;5107725;28;19928;-67
2022/10/09 04:47:37;;;;;;;;;;;19.20;85.70;;;;;;5107917;28;20018;-66
2022/10/09 04:50:03;;;;;;;;;;;19.20;85.70;;;;;;5110636;28;19924;-67
2022/10/09 04:52:29;;;;;;;;;;;19.10;85.70;;;;;;5093834;28;19924;-61
2022/10/09 04:54:54;;;;;;;;;;;19.20;85.70;;;;;;5113057;28;19997;-62
2022/10/09 04:57:20;;;;;;;;;;;18.80;85.50;;;;;;5114011;28;19930;-61
2022/10/09 04:59:46;;;;;;;;;;;19.10;85.70;;;;;;5110654;28;19924;-61
2022/10/09 05:02:11;;;;;;;;;;;19.10;85.70;;;;;;5110875;28;20308;-61
2022/10/09 05:04:38;;;;;;;;;;;;;;;;;;5113060;28;20293;-62
2022/10/09 05:07:04;;;;;;;;;;;19.10;85.70;;;;;;5094573;28;19923;-61
2022/10/09 05:09:29;;;;;;;;;;;19.20;85.70;;;;;;5091526;28;19920;-61
2022/10/09 05:11:55;;;;;;;;;;;18.90;85.60;;;;;;5113843;28;19928;-61
2022/10/09 05:14:21;;;;;;;;;;;19.10;85.70;;;;;;5113834;28;19928;-62
2022/10/09 05:16:48;;;;;;;;;;;19.10;85.70;;;;;;5116923;28;19979;-62
2022/10/09 05:19:14;;;;;;;;;;;18.90;85.60;;;;;;5115318;28;20014;-61
2022/10/09 05:21:40;;;;;;;;;;;19.00;85.60;;;;;;5114194;28;20031;-61
2022/10/09 05:24:06;;;;;;;;;;;18.90;85.60;;;;;;5115373;28;19945;-61
2022/10/09 05:26:32;;;;;;;;;;;19.00;85.60;;;;;;5117369;28;19924;-62
2022/10/09 05:28:58;;;;;;;;;;;19.30;85.80;;;;;;5115201;28;19998;-62
2022/10/09 05:31:24;;;;;;;;;;;18.80;85.40;;;;;;5113921;28;20040;-62
2022/10/09 05:33:50;;;;;;;;;;;18.90;85.50;;;;;;5116230;28;20289;-62
2022/10/09 05:36:16;;;;;;;;;;;18.90;85.50;;;;;;5116015;28;19924;-62
2022/10/09 05:38:42;;;;;;;;;;;18.70;85.40;;;;;;5114275;28;19932;-62
2022/10/09 05:41:09;;;;;;;;;;;19.20;85.60;;;;;;5114862;28;19928;-61
2022/10/09 05:43:35;;;;;;;;;;;18.80;85.40;;;;;;5114585;28;19928;-61
2022/10/09 05:46:08;;;;;;;;;;;19.00;85.60;;;;;;5116959;28;20010;-61
2022/10/09 05:48:34;;;;;;;;;;;19.00;85.50;;;;;;5105661;28;19974;-62
2022/10/09 05:51:07;;;;;;;;;;;18.80;85.40;;;;;;5116385;28;19924;-61
2022/10/09 05:53:33;;;;;;;;;;;18.90;85.40;;;;;;5101193;28;19924;-62
2022/10/09 05:56:08;;;;;;;;;;;18.90;85.40;;;;;;5115918;28;20266;-62
2022/10/09 05:58:33;;;;;;;;;;;18.80;85.30;;;;;;5115742;28;19946;-62
2022/10/09 06:00:59;;;;;;;;;;;19.00;85.40;;;;;;5114419;28;19924;-62
2022/10/09 06:03:25;;;;;;;;;;;18.90;85.30;;;;;;5086813;28;19927;-63
2022/10/09 06:05:50;;;;;;;;;;;19.20;85.50;;;;;;5097306;28;20021;-61
2022/10/09 06:08:16;;;;;;;;;;;18.80;85.20;;;;;;5115408;28;19930;-62
2022/10/09 06:10:42;;;;;;;;;;;;;;;;;;5114442;28;20365;-63
2022/10/09 06:13:08;;;;;;;;;;;18.80;85.10;;;;;;5114007;28;19931;-62
2022/10/09 06:15:33;;;;;;;;;;;19.20;85.30;;;;;;5114183;28;19923;-62
2022/10/09 06:17:59;;;;;;;;;;;18.70;85.00;;;;;;5115121;28;19981;-61
2022/10/09 06:20:25;;;;;;;;;;;18.80;85.00;;;;;;5116309;28;19934;-62
2022/10/09 06:22:51;;;;;;;;;;;;;;;;;;5115130;28;19945;-64
2022/10/09 06:25:17;;;;;;;;;;;18.90;84.80;;;;;;5111974;28;19928;-61
2022/10/09 06:27:42;;;;;;;;;;;19.10;84.80;;;;;;5113586;28;19931;-62
2022/10/09 06:30:08;;;;;;;;;;;19.30;84.80;;;;;;5087136;28;20406;-61
2022/10/09 06:32:34;;;;;;;;;;;19.10;84.50;;;;;;5096922;28;20369;-62
2022/10/09 06:35:00;;;;;;;;;;;19.30;84.50;;;;;;5114785;28;20400;-62
2022/10/09 06:37:26;;;;;;;;;;;;;;;;;;5095070;28;19927;-65
2022/10/09 06:39:51;;;;;;;;;;;19.40;84.20;;;;;;5113836;28;19931;-62
2022/10/09 06:42:18;;;;;;;;;;;19.60;84.30;;;;;;5115570;28;19924;-62
2022/10/09 06:44:44;;;;;;;;;;;19.70;84.30;;;;;;5112023;28;20284;-62
2022/10/09 06:47:10;;;;;;;;;;;19.70;84.20;;;;;;5113620;28;20289;-62
2022/10/09 06:49:35;;;;;;;;;;;19.70;84.10;;;;;;5113148;28;19924;-62
2022/10/09 06:52:01;;;;;;;;;;;19.90;84.00;;;;;;5094919;28;19920;-62
2022/10/09 06:54:27;;;;;;;;;;;20.10;84.00;;;;;;5110637;28;19924;-63
2022/10/09 06:56:54;;;;;;;;;;;19.90;83.80;;;;;;5112795;28;19924;-62
2022/10/09 06:59:20;;;;;;;;;;;20.00;83.70;;;;;;5109259;27;19919;-69
2022/10/09 07:01:46;;;;;;;;;;;20.20;84.00;;;;;;5111409;28;19924;-68
2022/10/09 07:04:12;;;;;;;;;;;20.30;83.90;;;;;;5113567;28;20377;-69
2022/10/09 07:06:39;;;;;;;;;;;20.20;83.50;;;;;;5112023;28;19976;-66
2022/10/09 07:09:06;;;;;;;;;;;20.60;83.50;;;;;;5112794;28;20361;-64
2022/10/09 07:11:33;;;;;;;;;;;20.50;83.30;;;;;;5114002;28;19924;-68
2022/10/09 07:14:00;;;;;;;;;;;20.20;83.00;;;;;;5102887;27;19923;-70
2022/10/09 07:16:26;;;;;;;;;;;20.60;81.40;;;;;;5114723;27;19924;-61
2022/10/09 07:18:52;;;;;;;;;;;20.70;81.40;;;;;;5113368;27;19954;-68
2022/10/09 07:21:18;;;;;;;;;;;20.80;81.40;;;;;;5098913;28;19976;-62
2022/10/09 07:23:44;;;;;;;;;;;20.50;81.20;;;;;;5094958;28;20362;-62
2022/10/09 07:26:14;;;;;;;;;;;20.60;81.30;;;;;;5098581;28;20404;-61
2022/10/09 07:28:40;;;;;;;;;;;20.80;81.20;;;;;;5095027;28;19977;-69
2022/10/09 07:31:06;;;;;;;;;;;21.10;81.30;;;;;;5107527;28;19924;-68
2022/10/09 07:33:32;;;;;;;;;;;20.80;81.10;;;;;;5096322;28;19931;-68
2022/10/09 07:35:58;;;;;;;;;;;21.00;81.20;;;;;;5095513;28;19924;-63
2022/10/09 07:38:24;;;;;;;;;;;21.00;81.10;;;;;;5096697;28;19924;-62
2022/10/09 07:40:50;;;;;;;;;;;21.10;81.00;;;;;;5112566;28;20429;-63
2022/10/09 07:43:16;;;;;;;;;;;21.00;80.80;;;;;;5114756;28;20297;-71
2022/10/09 07:45:41;;;;;;;;;;;21.30;80.90;;;;;;5114753;28;19924;-73
2022/10/09 07:48:07;;;;;;;;;;;21.00;80.60;;;;;;5114707;28;20322;-66
2022/10/09 07:50:33;;;;;;;;;;;21.40;80.60;;;;;;5113832;28;20274;-67
2022/10/09 07:52:59;;;;;;;;;;;21.20;80.10;;;;;;5110147;28;19930;-71
2022/10/09 07:55:25;;;;;;;;;;;21.40;80.10;;;;;;5114600;28;20373;-70
2022/10/09 07:57:50;;;;;;;;;;;21.40;79.30;;;;;;5114306;28;19924;-62
2022/10/09 08:00:16;;;;;;;;;;;21.10;79.00;;;;;;5095902;28;19985;-65
2022/10/09 08:02:42;;;;;;;;;;;21.10;79.10;;;;;;5114071;28;20042;-62
2022/10/09 08:05:08;;;;;;;;;;;21.30;79.20;;;;;;5111868;28;19924;-70
2022/10/09 08:07:33;;;;;;;;;;;21.10;79.70;;;;;;5092997;28;19923;-70
2022/10/09 08:09:59;;;;;;;;;;;;;;;;;;5089481;28;19949;-66
2022/10/09 08:12:25;;;;;;;;;;;21.10;79.80;;;;;;5110195;28;19924;-70
2022/10/09 08:14:51;;;;;;;;;;;21.30;79.80;;;;;;5111894;28;19931;-68
2022/10/09 08:17:17;;;;;;;;;;;21.40;79.70;;;;;;5114342;28;19966;-69
2022/10/09 08:19:42;;;;;;;;;;;21.40;79.60;;;;;;5114357;28;20478;-70
2022/10/09 08:22:08;;;;;;;;;;;21.60;79.70;;;;;;5109669;28;20407;-69
2022/10/09 08:24:34;;;;;;;;;;;21.70;79.90;;;;;;5111751;28;19924;-69
2022/10/09 08:26:59;;;;;;;;;;;21.60;79.60;;;;;;5114028;28;19923;-68
2022/10/09 08:29:25;;;;;;;;;;;21.70;79.70;;;;;;5114313;28;19924;-68
2022/10/09 08:31:52;;;;;;;;;;;21.50;79.20;;;;;;5114087;28;19931;-68
2022/10/09 08:34:17;;;;;;;;;;;21.90;79.30;;;;;;5113123;28;20280;-69
2022/10/09 08:36:43;;;;;;;;;;;21.60;79.30;;;;;;5111317;28;19923;-69
2022/10/09 08:39:09;;;;;;;;;;;21.90;79.20;;;;;;5113901;28;20393;-71
2022/10/09 08:41:39;;;;;;;;;;;21.50;79.20;;;;;;5110717;28;20023;-67
2022/10/09 08:44:24;;;;;;;;;;;21.40;78.30;;;;;;5085305;28;19927;-67
2022/10/09 08:46:53;;;;;;;;;;;21.60;79.40;;;;;;5094926;28;19924;-69
2022/10/09 08:49:39;;;;;;;;;;;21.50;78.50;;;;;;5116155;28;20378;-61
2022/10/09 08:52:16;;;;;;;;;;;21.70;80.00;;;;;;5117144;28;20326;-67
2022/10/09 08:54:41;;;;;;;;;;;21.50;78.40;;;;;;5117966;28;19924;-64
2022/10/09 08:57:11;;;;;;;;;;;21.80;79.70;;;;;;5117182;28;20398;-74
2022/10/09 08:59:37;;;;;;;;;;;21.50;79.30;;;;;;5116714;28;20019;-62
2022/10/09 09:02:23;;;;;;;;;;;21.60;79.50;;;;;;5117341;28;20376;-61
2022/10/09 09:04:48;;;;;;;;;;;21.60;79.90;;;;;;5116947;28;19950;-62
2022/10/09 09:07:20;;;;;;;;;;;21.80;79.70;;;;;;5116465;28;19928;-62
2022/10/09 09:09:53;;;;;;;;;;;21.80;78.70;;;;;;5117390;28;19924;-66
2022/10/09 09:12:21;;;;;;;;;;;21.20;79.30;;;;;;5088144;28;19942;-62
2022/10/09 09:15:17;;;;;;;;;;;21.40;78.60;;;;;;5099209;27;20027;-64
2022/10/09 09:17:42;;;;;;;;;;;21.40;79.60;;;;;;5045127;28;19966;-62
2022/10/09 09:20:15;;;;;;;;;;;21.70;80.00;;;;;;5054435;28;19929;-61
2022/10/09 09:22:42;;;;;;;;;;;21.40;78.70;;;;;;5053267;28;20330;-61
2022/10/09 09:25:16;;;;;;;;;;;21.40;80.20;;;;;;5034568;28;20413;-62
2022/10/09 09:27:41;;;;;;;;;;;21.60;79.10;;;;;;5020200;28;19933;-61
2022/10/09 09:30:15;;;;;;;;;;;21.60;80.20;;;;;;5053327;28;19947;-71
2022/10/09 09:32:59;;;;;;;;;;;21.40;79.30;;;;;;5037438;28;19931;-67
2022/10/09 09:35:29;;;;;;;;;;;21.30;80.30;;;;;;5039495;28;20406;-70
2022/10/09 09:37:55;;;;;;;;;;;21.10;78.80;;;;;;5036760;28;19933;-62
2022/10/09 09:40:20;;;;;;;;;;;21.20;80.30;;;;;;5049261;28;20440;-74
2022/10/09 09:42:46;;;;;;;;;;;21.40;80.60;;;;;;5037347;28;19925;-62
2022/10/09 09:45:12;;;;;;;;;;;21.00;80.80;;;;;;5047022;28;19975;-61
2022/10/09 09:47:39;;;;;;;;;;;21.30;80.80;;;;;;5037003;28;20421;-63
2022/10/09 09:50:05;;;;;;;;;;;21.00;81.30;;;;;;5026051;28;19937;-61
2022/10/09 09:52:33;;;;;;;;;;;21.10;80.80;;;;;;5033920;28;19925;-71
2022/10/09 09:54:59;;;;;;;;;;;21.10;81.10;;;;;;5090939;28;19920;-63
2022/10/09 09:57:32;;;;;;;;;;;21.00;81.30;;;;;;5078299;28;20385;-67
2022/10/09 10:00:27;;;;;;;;;;;21.10;80.20;;;;;;5081206;28;19976;-61
2022/10/09 10:03:10;;;;;;;;;;;21.40;80.40;;;;;;5053726;28;19929;-61
2022/10/09 10:05:36;;;;;;;;;;;21.30;80.50;;;;;;5053930;28;20392;-61
2022/10/09 10:08:12;;;;;;;;;;;21.20;81.60;;;;;;5050163;28;19925;-61
2022/10/09 10:10:37;;;;;;;;;;;21.00;80.40;;;;;;5044317;28;19939;-62
2022/10/09 10:13:03;;;;;;;;;;;21.20;81.60;;;;;;5035599;28;20019;-73
2022/10/09 10:15:29;;;;;;;;;;;21.60;82.00;;;;;;5021282;28;20494;-73
2022/10/09 10:18:21;;;;;;;;;;;21.40;82.10;;;;;;5016078;28;20422;-72
2022/10/09 10:20:46;;;;;;;;;;;21.40;81.60;;;;;;5029470;28;19979;-62
2022/10/09 10:23:33;;;;;;;;;;;21.60;81.80;;;;;;5013918;28;20394;-73
2022/10/09 10:25:59;;;;;;;;;;;21.60;81.90;;;;;;4973842;28;19977;-61
2022/10/09 10:28:29;;;;;;;;;;;21.40;81.80;;;;;;4958081;28;19930;-61
2022/10/09 10:30:56;;;;;;;;;;;21.60;81.80;;;;;;4973340;28;19930;-62
2022/10/09 10:33:23;;;;;;;;;;;21.50;82.10;;;;;;4957461;28;19934;-61
2022/10/09 10:35:50;;;;;;;;;;;21.60;82.20;;;;;;4974256;28;19926;-62
2022/10/09 10:38:17;;;;;;;;;;;21.80;81.80;;;;;;4961655;28;19927;-61
2022/10/09 10:40:45;;;;;;;;;;;21.60;82.20;;;;;;4961236;28;19972;-63
2022/10/09 10:43:19;;;;;;;;;;;21.40;82.10;;;;;;4977115;28;19976;-61
2022/10/09 10:45:51;;;;;;;;;;;21.40;80.60;;;;;;5011781;28;19975;-61
2022/10/09 10:48:38;;;;;;;;;;;21.70;80.60;;;;;;5013108;28;19937;-61
2022/10/09 10:51:12;;;;;;;;;;;21.90;80.70;;;;;;4995699;28;19976;-61
2022/10/09 10:53:56;;;;;;;;;;;21.70;80.60;;;;;;5013010;28;19925;-61
2022/10/09 10:56:32;;;;;;;;;;;21.80;81.60;;;;;;5006485;28;20339;-61
2022/10/09 10:59:00;;;;;;;;;;;21.80;82.00;;;;;;4996571;28;19926;-61
2022/10/09 11:01:46;;;;;;;;;;;21.90;80.40;;;;;;5011547;28;19984;-61
2022/10/09 11:04:20;;;;;;;;;;;21.90;81.60;;;;;;5091945;28;19928;-61
2022/10/09 11:06:58;;;;;;;;;;;21.90;80.10;;;;;;5075587;28;19962;-61
2022/10/09 11:09:30;;;;;;;;;;;22.00;79.90;;;;;;5058412;28;20047;-61
2022/10/09 11:12:01;;;;;;;;;;;22.10;79.60;;;;;;5092173;28;20025;-61
2022/10/09 11:14:29;;;;;;;;;;;22.30;80.90;;;;;;5078749;28;19950;-72
2022/10/09 11:17:13;;;;;;;;;;;22.30;79.30;;;;;;5094459;28;19925;-72
2022/10/09 11:19:39;;;;;;;;;;;22.50;79.30;;;;;;5094786;28;19931;-65
2022/10/09 11:22:14;;;;;;;;;;;22.40;80.00;;;;;;5093854;28;20373;-69
2022/10/09 11:24:58;;;;;;;;;;;22.50;78.80;;;;;;5091379;28;19924;-63
2022/10/09 11:27:27;;;;;;;;;;;22.50;78.50;;;;;;5091282;28;19931;-64
2022/10/09 11:29:57;;;;;;;;;;;22.70;78.20;;;;;;5093144;28;20289;-62
2022/10/09 11:32:22;;;;;;;;;;;22.50;77.60;;;;;;5094133;28;20015;-61
2022/10/09 11:34:57;;;;;;;;;;;22.60;79.10;;;;;;5094550;28;19967;-61
2022/10/09 11:37:24;;;;;;;;;;;22.70;78.00;;;;;;5092222;28;19924;-62
2022/10/09 11:39:49;;;;;;;;;;;22.70;79.40;;;;;;5093325;28;20289;-62
2022/10/09 11:42:16;;;;;;;;;;;22.70;79.00;;;;;;5094472;28;19946;-62
2022/10/09 11:44:48;;;;;;;;;;;22.80;79.20;;;;;;5094343;28;20361;-62
2022/10/09 11:47:20;;;;;;;;;;;22.90;77.80;;;;;;5093864;28;19928;-62
2022/10/09 11:49:55;;;;;;;;;;;22.80;78.60;;;;;;5075479;28;19978;-62
2022/10/09 11:52:20;;;;;;;;;;;22.80;77.60;;;;;;5074110;28;19924;-62
2022/10/09 11:54:46;;;;;;;;;;;22.90;78.60;;;;;;5073788;28;19925;-62
2022/10/09 11:57:12;;;;;;;;;;;23.20;78.60;;;;;;5074077;28;19977;-62
2022/10/09 11:59:41;;;;;;;;;;;23.10;78.30;;;;;;5085205;28;19928;-61
2022/10/09 12:02:26;;;;;;;;;;;23.20;78.40;;;;;;5094074;28;19927;-61
2022/10/09 12:04:52;;;;;;;;;;;23.30;77.10;;;;;;5094043;28;19924;-61
2022/10/09 12:07:44;;;;;;;;;;;23.30;78.00;;;;;;5092943;28;20251;-62
2022/10/09 12:10:26;;;;;;;;;;;23.10;76.90;;;;;;5091725;28;19923;-62
2022/10/09 12:12:56;;;;;;;;;;;23.60;77.20;;;;;;5092860;28;19967;-62
2022/10/09 12:15:25;;;;;;;;;;;24.10;76.70;;;;;;5108473;28;20016;-63
2022/10/09 12:17:51;;;;;;;;;;;25.00;77.30;;;;;;5113322;28;19924;-62
2022/10/09 12:20:20;;;;;;;;;;;25.50;75.90;;;;;;5114249;28;19924;-62
2022/10/09 12:22:48;;;;;;;;;;;25.90;75.60;;;;;;5077114;28;19925;-63
2022/10/09 12:25:24;;;;;;;;;;;25.90;75.00;;;;;;5080155;28;19969;-62
2022/10/09 12:27:51;;;;;;;;;;;25.70;73.20;;;;;;5105730;28;20001;-62
2022/10/09 12:30:19;;;;;;;;;;;25.70;74.70;;;;;;5099364;28;20293;-62
2022/10/09 12:32:54;;;;;;;;;;;25.70;74.50;;;;;;5100069;28;20018;-62
2022/10/09 12:35:22;;;;;;;;;;;25.20;73.20;;;;;;5118428;28;20270;-62
2022/10/09 12:37:48;;;;;;;;;;;25.00;74.60;;;;;;5117189;28;20014;-62
2022/10/09 12:40:14;;;;;;;;;;;24.90;74.80;;;;;;5100161;28;20024;-62
2022/10/09 12:42:40;;;;;;;;;;;24.90;75.00;;;;;;5107247;28;20295;-62
2022/10/09 12:45:13;;;;;;;;;;;24.50;73.60;;;;;;5118101;28;19923;-62
2022/10/09 12:47:39;;;;;;;;;;;24.40;72.80;;;;;;5099528;28;19924;-61
2022/10/09 12:50:24;;;;;;;;;;;24.30;72.70;;;;;;5115293;28;19935;-62
2022/10/09 12:52:53;;;;;;;;;;;23.70;71.60;;;;;;5099861;28;19924;-70
2022/10/09 12:55:26;;;;;;;;;;;23.60;71.70;;;;;;5107101;28;19930;-74
2022/10/09 12:57:52;;;;;;;;;;;23.40;71.70;;;;;;5117561;28;20385;-74
2022/10/09 13:00:18;;;;;;;;;;;23.30;73.20;;;;;;5107274;28;19931;-74
2022/10/09 13:02:43;;;;;;;;;;;23.00;72.60;;;;;;5097456;28;19923;-73
2022/10/09 13:05:09;;;;;;;;;;;22.90;73.10;;;;;;5099616;28;19967;-73
2022/10/09 13:07:35;;;;;;;;;;;22.40;72.80;;;;;;5117466;28;19930;-72
2022/10/09 13:10:02;;;;;;;;;;;22.30;73.20;;;;;;5116867;28;19928;-66
2022/10/09 13:12:28;;;;;;;;;;;22.50;73.40;;;;;;5115794;28;20293;-62
2022/10/09 13:14:55;;;;;;;;;;;21.90;73.10;;;;;;5096300;28;19927;-76
2022/10/09 13:17:21;;;;;;;;;;;22.10;73.60;;;;;;5116246;28;19930;-63
2022/10/09 13:19:51;;;;;;;;;;;23.40;74.70;;;;;;5116422;28;19923;-61
2022/10/09 13:22:17;;;;;;;;;;;21.80;72.70;;;;;;5116690;28;20365;-65
2022/10/09 13:24:43;;;;;;;;;;;21.50;74.50;;;;;;5115685;28;19963;-74
2022/10/09 13:27:09;;;;;;;;;;;21.80;74.60;;;;;;5117121;28;19978;-62
2022/10/09 13:29:35;;;;;;;;;;;21.50;75.20;;;;;;5115244;28;19931;-65
2022/10/09 13:32:02;;;;;;;;;;;21.40;74.20;;;;;;5116861;28;19924;-71
2022/10/09 13:34:27;;;;;;;;;;;21.10;74.90;;;;;;5115710;28;19927;-63
2022/10/09 13:36:53;;;;;;;;;;;21.40;75.10;;;;;;5116840;28;20385;-64
2022/10/09 13:39:19;;;;;;;;;;;21.20;75.30;;;;;;5112120;28;19928;-75
2022/10/09 13:41:45;;;;;;;;;;;21.40;75.30;;;;;;5096653;28;19931;-74
2022/10/09 13:44:10;;;;;;;;;;;21.30;75.50;;;;;;5096363;28;19953;-62
2022/10/09 13:46:36;;;;;;;;;;;21.00;75.30;;;;;;5111878;28;19930;-69
2022/10/09 13:49:01;;;;;;;;;;;21.20;75.60;;;;;;5116645;28;20369;-73
2022/10/09 13:51:28;;;;;;;;;;;21.00;75.60;;;;;;5114815;28;19924;-73
2022/10/09 13:53:53;;;;;;;;;;;21.00;75.10;;;;;;5116553;28;19924;-61
2022/10/09 13:56:19;;;;;;;;;;;21.00;75.10;;;;;;5116410;28;19924;-61
2022/10/09 13:58:44;;;;;;;;;;;21.00;75.40;;;;;;5111420;28;20041;-62
2022/10/09 14:01:10;;;;;;;;;;;20.90;75.30;;;;;;5091141;28;19942;-61
2022/10/09 14:03:36;;;;;;;;;;;20.80;75.90;;;;;;5116334;28;20002;-61
2022/10/09 14:06:04;;;;;;;;;;;20.70;75.90;;;;;;5116027;28;20381;-62
2022/10/09 14:08:30;;;;;;;;;;;20.70;75.30;;;;;;5115033;28;19930;-61
2022/10/09 14:10:57;;;;;;;;;;;20.90;76.40;;;;;;5116548;28;19919;-61
2022/10/09 14:13:23;;;;;;;;;;;20.70;76.80;;;;;;5116452;28;19930;-61
2022/10/09 14:15:50;;;;;;;;;;;21.00;76.50;;;;;;5115989;28;20369;-61
2022/10/09 14:18:16;;;;;;;;;;;20.90;76.70;;;;;;5115942;28;19924;-61
2022/10/09 14:20:41;;;;;;;;;;;21.20;76.60;;;;;;5116194;28;19972;-61
2022/10/09 14:23:08;;;;;;;;;;;21.00;76.90;;;;;;5116196;28;20381;-61